sensor_id;sensor_type;location;lat;lon;timestamp;P1;durP1;ratioP1;P2;durP2;ratioP2
55672;SDS011;41554;45.366;20.400;2022-09-01T00:01:39;10.02;;;6.88;;
55672;SDS011;41554;45.366;20.400;2022-09-01T00:04:09;23.27;;;7.13;;
55672;SDS011;41554;45.366;20.400;2022-09-01T00:06:36;8.75;;;6.72;;
55672;SDS011;41554;45.366;20.400;2022-09-01T00:09:05;5.85;;;5.25;;
55672;SDS011;41554;45.366;20.400;2022-09-01T00:11:32;14.45;;;7.32;;
55672;SDS011;41554;45.366;20.400;2022-09-01T00:13:59;11.73;;;6.97;;
55672;SDS011;41554;45.366;20.400;2022-09-01T00:16:26;10.65;;;7.88;;
55672;SDS011;41554;45.366;20.400;2022-09-01T00:18:52;9.00;;;6.10;;
55672;SDS011;41554;45.366;20.400;2022-09-01T00:21:23;10.73;;;7.07;;
55672;SDS011;41554;45.366;20.400;2022-09-01T00:23:49;9.48;;;6.50;;
55672;SDS011;41554;45.366;20.400;2022-09-01T00:26:15;10.85;;;7.00;;
55672;SDS011;41554;45.366;20.400;2022-09-01T00:28:41;12.60;;;7.25;;
55672;SDS011;41554;45.366;20.400;2022-09-01T00:31:08;9.20;;;6.35;;
55672;SDS011;41554;45.366;20.400;2022-09-01T00:33:35;8.32;;;6.93;;
55672;SDS011;41554;45.366;20.400;2022-09-01T00:36:01;10.45;;;6.72;;
55672;SDS011;41554;45.366;20.400;2022-09-01T00:38:27;13.13;;;7.15;;
55672;SDS011;41554;45.366;20.400;2022-09-01T00:40:53;7.97;;;6.07;;
55672;SDS011;41554;45.366;20.400;2022-09-01T00:43:20;15.07;;;9.38;;
55672;SDS011;41554;45.366;20.400;2022-09-01T00:45:47;9.38;;;7.28;;
55672;SDS011;41554;45.366;20.400;2022-09-01T00:48:19;10.13;;;7.85;;
55672;SDS011;41554;45.366;20.400;2022-09-01T00:50:46;10.15;;;6.60;;
55672;SDS011;41554;45.366;20.400;2022-09-01T00:53:12;10.35;;;7.47;;
55672;SDS011;41554;45.366;20.400;2022-09-01T00:55:38;8.43;;;7.53;;
55672;SDS011;41554;45.366;20.400;2022-09-01T00:58:05;10.13;;;6.13;;
55672;SDS011;41554;45.366;20.400;2022-09-01T01:00:33;9.65;;;6.43;;
55672;SDS011;41554;45.366;20.400;2022-09-01T01:03:04;10.18;;;6.78;;
55672;SDS011;41554;45.366;20.400;2022-09-01T01:05:32;8.05;;;6.10;;
55672;SDS011;41554;45.366;20.400;2022-09-01T01:07:59;11.65;;;8.20;;
55672;SDS011;41554;45.366;20.400;2022-09-01T01:10:26;11.32;;;7.82;;
55672;SDS011;41554;45.366;20.400;2022-09-01T01:12:57;8.55;;;6.85;;
55672;SDS011;41554;45.366;20.400;2022-09-01T01:15:26;12.10;;;6.50;;
55672;SDS011;41554;45.366;20.400;2022-09-01T01:17:52;12.18;;;7.13;;
55672;SDS011;41554;45.366;20.400;2022-09-01T01:20:18;8.05;;;6.15;;
55672;SDS011;41554;45.366;20.400;2022-09-01T01:23:15;8.68;;;6.95;;
55672;SDS011;41554;45.366;20.400;2022-09-01T01:25:52;9.63;;;6.43;;
55672;SDS011;41554;45.366;20.400;2022-09-01T01:28:20;15.85;;;8.68;;
55672;SDS011;41554;45.366;20.400;2022-09-01T01:30:48;9.60;;;7.43;;
55672;SDS011;41554;45.366;20.400;2022-09-01T01:33:17;10.77;;;7.43;;
55672;SDS011;41554;45.366;20.400;2022-09-01T01:35:44;9.90;;;7.05;;
55672;SDS011;41554;45.366;20.400;2022-09-01T01:38:11;11.85;;;7.70;;
55672;SDS011;41554;45.366;20.400;2022-09-01T01:40:38;10.73;;;7.88;;
55672;SDS011;41554;45.366;20.400;2022-09-01T01:43:05;9.50;;;7.50;;
55672;SDS011;41554;45.366;20.400;2022-09-01T01:45:31;9.48;;;7.00;;
55672;SDS011;41554;45.366;20.400;2022-09-01T01:47:57;11.45;;;7.20;;
55672;SDS011;41554;45.366;20.400;2022-09-01T01:50:32;21.77;;;7.10;;
55672;SDS011;41554;45.366;20.400;2022-09-01T01:53:00;9.80;;;8.25;;
55672;SDS011;41554;45.366;20.400;2022-09-01T01:55:27;9.13;;;6.60;;
55672;SDS011;41554;45.366;20.400;2022-09-01T01:57:55;9.70;;;7.10;;
55672;SDS011;41554;45.366;20.400;2022-09-01T02:00:23;17.15;;;6.43;;
55672;SDS011;41554;45.366;20.400;2022-09-01T02:02:49;18.95;;;8.90;;
55672;SDS011;41554;45.366;20.400;2022-09-01T02:05:20;12.82;;;7.65;;
55672;SDS011;41554;45.366;20.400;2022-09-01T02:07:50;16.25;;;7.43;;
55672;SDS011;41554;45.366;20.400;2022-09-01T02:10:20;13.95;;;8.35;;
55672;SDS011;41554;45.366;20.400;2022-09-01T02:12:46;10.07;;;7.50;;
55672;SDS011;41554;45.366;20.400;2022-09-01T02:15:13;9.90;;;6.07;;
55672;SDS011;41554;45.366;20.400;2022-09-01T02:17:39;10.93;;;7.65;;
55672;SDS011;41554;45.366;20.400;2022-09-01T02:20:07;11.35;;;8.32;;
55672;SDS011;41554;45.366;20.400;2022-09-01T02:22:34;14.13;;;7.57;;
55672;SDS011;41554;45.366;20.400;2022-09-01T02:25:02;12.32;;;9.00;;
55672;SDS011;41554;45.366;20.400;2022-09-01T02:27:28;8.50;;;7.50;;
55672;SDS011;41554;45.366;20.400;2022-09-01T02:29:58;12.20;;;7.82;;
55672;SDS011;41554;45.366;20.400;2022-09-01T02:32:25;11.50;;;6.75;;
55672;SDS011;41554;45.366;20.400;2022-09-01T02:34:52;9.90;;;7.80;;
55672;SDS011;41554;45.366;20.400;2022-09-01T02:37:21;9.43;;;6.78;;
55672;SDS011;41554;45.366;20.400;2022-09-01T02:39:50;13.32;;;7.07;;
55672;SDS011;41554;45.366;20.400;2022-09-01T02:42:23;11.27;;;7.38;;
55672;SDS011;41554;45.366;20.400;2022-09-01T02:44:53;13.13;;;7.13;;
55672;SDS011;41554;45.366;20.400;2022-09-01T02:47:20;7.18;;;6.05;;
55672;SDS011;41554;45.366;20.400;2022-09-01T02:49:47;8.68;;;6.72;;
55672;SDS011;41554;45.366;20.400;2022-09-01T02:52:14;11.25;;;8.50;;
55672;SDS011;41554;45.366;20.400;2022-09-01T02:54:42;8.57;;;6.45;;
55672;SDS011;41554;45.366;20.400;2022-09-01T02:57:10;10.88;;;8.13;;
55672;SDS011;41554;45.366;20.400;2022-09-01T02:59:36;11.85;;;7.53;;
55672;SDS011;41554;45.366;20.400;2022-09-01T03:02:02;10.23;;;7.38;;
55672;SDS011;41554;45.366;20.400;2022-09-01T03:04:28;10.15;;;7.63;;
55672;SDS011;41554;45.366;20.400;2022-09-01T03:06:59;9.93;;;7.88;;
55672;SDS011;41554;45.366;20.400;2022-09-01T03:09:25;8.55;;;7.03;;
55672;SDS011;41554;45.366;20.400;2022-09-01T03:11:52;10.75;;;8.07;;
55672;SDS011;41554;45.366;20.400;2022-09-01T03:14:19;7.97;;;7.13;;
55672;SDS011;41554;45.366;20.400;2022-09-01T03:16:45;12.05;;;6.90;;
55672;SDS011;41554;45.366;20.400;2022-09-01T03:19:11;9.68;;;7.25;;
55672;SDS011;41554;45.366;20.400;2022-09-01T03:21:39;14.65;;;8.35;;
55672;SDS011;41554;45.366;20.400;2022-09-01T03:24:06;10.75;;;7.40;;
55672;SDS011;41554;45.366;20.400;2022-09-01T03:26:33;20.33;;;7.38;;
55672;SDS011;41554;45.366;20.400;2022-09-01T03:29:00;9.60;;;7.25;;
55672;SDS011;41554;45.366;20.400;2022-09-01T03:31:26;19.10;;;7.88;;
55672;SDS011;41554;45.366;20.400;2022-09-01T03:33:53;9.25;;;7.60;;
55672;SDS011;41554;45.366;20.400;2022-09-01T03:36:21;12.07;;;8.38;;
55672;SDS011;41554;45.366;20.400;2022-09-01T03:38:47;8.75;;;7.47;;
55672;SDS011;41554;45.366;20.400;2022-09-01T03:41:15;8.70;;;6.75;;
55672;SDS011;41554;45.366;20.400;2022-09-01T03:43:42;15.13;;;7.90;;
55672;SDS011;41554;45.366;20.400;2022-09-01T03:46:08;8.95;;;6.45;;
55672;SDS011;41554;45.366;20.400;2022-09-01T03:48:40;12.57;;;8.25;;
55672;SDS011;41554;45.366;20.400;2022-09-01T03:51:07;8.73;;;6.78;;
55672;SDS011;41554;45.366;20.400;2022-09-01T03:53:34;13.30;;;8.40;;
55672;SDS011;41554;45.366;20.400;2022-09-01T03:56:03;9.60;;;7.82;;
55672;SDS011;41554;45.366;20.400;2022-09-01T03:58:30;11.60;;;8.85;;
55672;SDS011;41554;45.366;20.400;2022-09-01T04:00:56;13.23;;;8.50;;
55672;SDS011;41554;45.366;20.400;2022-09-01T04:03:25;9.30;;;6.70;;
55672;SDS011;41554;45.366;20.400;2022-09-01T04:05:52;12.95;;;8.23;;
55672;SDS011;41554;45.366;20.400;2022-09-01T04:08:19;8.55;;;6.32;;
55672;SDS011;41554;45.366;20.400;2022-09-01T04:10:50;9.90;;;6.40;;
55672;SDS011;41554;45.366;20.400;2022-09-01T04:13:22;12.20;;;8.98;;
55672;SDS011;41554;45.366;20.400;2022-09-01T04:15:50;10.35;;;8.40;;
55672;SDS011;41554;45.366;20.400;2022-09-01T04:18:16;10.02;;;7.90;;
55672;SDS011;41554;45.366;20.400;2022-09-01T04:20:49;13.68;;;8.13;;
55672;SDS011;41554;45.366;20.400;2022-09-01T04:23:20;12.73;;;9.27;;
55672;SDS011;41554;45.366;20.400;2022-09-01T04:25:56;14.48;;;10.75;;
55672;SDS011;41554;45.366;20.400;2022-09-01T04:28:24;14.65;;;9.65;;
55672;SDS011;41554;45.366;20.400;2022-09-01T04:30:51;11.75;;;7.57;;
55672;SDS011;41554;45.366;20.400;2022-09-01T04:33:19;7.63;;;6.57;;
55672;SDS011;41554;45.366;20.400;2022-09-01T04:35:46;10.43;;;5.03;;
55672;SDS011;41554;45.366;20.400;2022-09-01T04:38:13;8.98;;;4.97;;
55672;SDS011;41554;45.366;20.400;2022-09-01T04:40:40;8.75;;;5.35;;
55672;SDS011;41554;45.366;20.400;2022-09-01T04:43:06;8.10;;;4.25;;
55672;SDS011;41554;45.366;20.400;2022-09-01T04:45:33;5.28;;;3.65;;
55672;SDS011;41554;45.366;20.400;2022-09-01T04:48:01;5.25;;;4.10;;
55672;SDS011;41554;45.366;20.400;2022-09-01T04:50:27;4.68;;;3.92;;
55672;SDS011;41554;45.366;20.400;2022-09-01T04:52:56;5.60;;;3.90;;
55672;SDS011;41554;45.366;20.400;2022-09-01T04:55:22;7.22;;;4.22;;
55672;SDS011;41554;45.366;20.400;2022-09-01T04:57:51;10.95;;;4.18;;
55672;SDS011;41554;45.366;20.400;2022-09-01T05:00:18;4.53;;;3.63;;
55672;SDS011;41554;45.366;20.400;2022-09-01T05:02:48;6.53;;;3.67;;
55672;SDS011;41554;45.366;20.400;2022-09-01T05:05:16;3.83;;;2.80;;
55672;SDS011;41554;45.366;20.400;2022-09-01T05:07:42;6.70;;;3.42;;
55672;SDS011;41554;45.366;20.400;2022-09-01T05:10:08;4.95;;;2.83;;
55672;SDS011;41554;45.366;20.400;2022-09-01T05:12:34;7.85;;;4.88;;
55672;SDS011;41554;45.366;20.400;2022-09-01T05:15:01;7.75;;;2.85;;
55672;SDS011;41554;45.366;20.400;2022-09-01T05:17:30;7.22;;;3.70;;
55672;SDS011;41554;45.366;20.400;2022-09-01T05:19:57;6.88;;;3.30;;
55672;SDS011;41554;45.366;20.400;2022-09-01T05:22:24;4.70;;;3.60;;
55672;SDS011;41554;45.366;20.400;2022-09-01T05:24:51;5.50;;;2.67;;
55672;SDS011;41554;45.366;20.400;2022-09-01T05:27:17;5.57;;;2.97;;
55672;SDS011;41554;45.366;20.400;2022-09-01T05:29:43;8.20;;;3.67;;
55672;SDS011;41554;45.366;20.400;2022-09-01T05:32:11;5.50;;;3.00;;
55672;SDS011;41554;45.366;20.400;2022-09-01T05:34:37;7.97;;;3.25;;
55672;SDS011;41554;45.366;20.400;2022-09-01T05:37:04;4.93;;;3.25;;
55672;SDS011;41554;45.366;20.400;2022-09-01T05:39:32;4.65;;;3.55;;
55672;SDS011;41554;45.366;20.400;2022-09-01T05:42:00;4.93;;;3.08;;
55672;SDS011;41554;45.366;20.400;2022-09-01T05:44:29;3.40;;;2.78;;
55672;SDS011;41554;45.366;20.400;2022-09-01T05:46:57;6.43;;;3.47;;
55672;SDS011;41554;45.366;20.400;2022-09-01T05:49:24;5.47;;;3.38;;
55672;SDS011;41554;45.366;20.400;2022-09-01T05:51:50;4.20;;;2.75;;
55672;SDS011;41554;45.366;20.400;2022-09-01T05:54:23;4.38;;;2.97;;
55672;SDS011;41554;45.366;20.400;2022-09-01T05:56:51;5.85;;;3.30;;
55672;SDS011;41554;45.366;20.400;2022-09-01T05:59:18;4.38;;;2.70;;
55672;SDS011;41554;45.366;20.400;2022-09-01T06:01:45;13.45;;;5.45;;
55672;SDS011;41554;45.366;20.400;2022-09-01T06:04:12;2.90;;;2.47;;
55672;SDS011;41554;45.366;20.400;2022-09-01T06:06:39;3.47;;;2.42;;
55672;SDS011;41554;45.366;20.400;2022-09-01T06:09:08;11.50;;;3.47;;
55672;SDS011;41554;45.366;20.400;2022-09-01T06:11:35;6.32;;;2.88;;
55672;SDS011;41554;45.366;20.400;2022-09-01T06:14:01;4.93;;;2.92;;
55672;SDS011;41554;45.366;20.400;2022-09-01T06:16:28;4.05;;;3.10;;
55672;SDS011;41554;45.366;20.400;2022-09-01T06:18:55;4.45;;;3.30;;
55672;SDS011;41554;45.366;20.400;2022-09-01T06:21:22;4.68;;;3.30;;
55672;SDS011;41554;45.366;20.400;2022-09-01T06:23:49;3.15;;;2.53;;
55672;SDS011;41554;45.366;20.400;2022-09-01T06:26:19;5.25;;;3.08;;
55672;SDS011;41554;45.366;20.400;2022-09-01T06:28:45;3.78;;;2.35;;
55672;SDS011;41554;45.366;20.400;2022-09-01T06:31:12;6.90;;;3.70;;
55672;SDS011;41554;45.366;20.400;2022-09-01T06:33:39;3.40;;;2.95;;
55672;SDS011;41554;45.366;20.400;2022-09-01T06:36:06;3.95;;;2.65;;
55672;SDS011;41554;45.366;20.400;2022-09-01T06:38:33;11.82;;;3.05;;
55672;SDS011;41554;45.366;20.400;2022-09-01T06:41:02;2.58;;;2.38;;
55672;SDS011;41554;45.366;20.400;2022-09-01T06:43:28;3.88;;;2.63;;
55672;SDS011;41554;45.366;20.400;2022-09-01T06:45:55;6.65;;;2.90;;
55672;SDS011;41554;45.366;20.400;2022-09-01T06:48:21;5.72;;;2.80;;
55672;SDS011;41554;45.366;20.400;2022-09-01T06:50:47;5.00;;;3.03;;
55672;SDS011;41554;45.366;20.400;2022-09-01T06:53:14;4.45;;;2.60;;
55672;SDS011;41554;45.366;20.400;2022-09-01T06:55:43;4.88;;;3.60;;
55672;SDS011;41554;45.366;20.400;2022-09-01T06:58:10;4.75;;;3.20;;
55672;SDS011;41554;45.366;20.400;2022-09-01T07:00:39;8.00;;;3.35;;
55672;SDS011;41554;45.366;20.400;2022-09-01T07:03:10;2.65;;;2.30;;
55672;SDS011;41554;45.366;20.400;2022-09-01T07:05:39;7.72;;;2.22;;
55672;SDS011;41554;45.366;20.400;2022-09-01T07:08:05;2.35;;;2.05;;
55672;SDS011;41554;45.366;20.400;2022-09-01T07:10:37;5.90;;;3.42;;
55672;SDS011;41554;45.366;20.400;2022-09-01T07:13:05;6.70;;;2.67;;
55672;SDS011;41554;45.366;20.400;2022-09-01T07:15:31;3.78;;;3.20;;
55672;SDS011;41554;45.366;20.400;2022-09-01T07:17:58;2.80;;;1.98;;
55672;SDS011;41554;45.366;20.400;2022-09-01T07:20:25;4.30;;;3.55;;
55672;SDS011;41554;45.366;20.400;2022-09-01T07:22:53;5.43;;;2.78;;
55672;SDS011;41554;45.366;20.400;2022-09-01T07:25:20;10.10;;;3.35;;
55672;SDS011;41554;45.366;20.400;2022-09-01T07:27:46;10.80;;;5.18;;
55672;SDS011;41554;45.366;20.400;2022-09-01T07:30:16;8.00;;;4.60;;
55672;SDS011;41554;45.366;20.400;2022-09-01T07:32:43;12.32;;;4.10;;
55672;SDS011;41554;45.366;20.400;2022-09-01T07:35:11;14.73;;;4.63;;
55672;SDS011;41554;45.366;20.400;2022-09-01T07:37:37;7.13;;;3.75;;
55672;SDS011;41554;45.366;20.400;2022-09-01T07:40:04;7.90;;;3.58;;
55672;SDS011;41554;45.366;20.400;2022-09-01T07:42:31;3.95;;;2.80;;
55672;SDS011;41554;45.366;20.400;2022-09-01T07:44:57;7.03;;;3.40;;
55672;SDS011;41554;45.366;20.400;2022-09-01T07:47:24;6.57;;;3.72;;
55672;SDS011;41554;45.366;20.400;2022-09-01T07:49:53;10.77;;;5.80;;
55672;SDS011;41554;45.366;20.400;2022-09-01T07:52:20;7.32;;;3.95;;
55672;SDS011;41554;45.366;20.400;2022-09-01T07:54:46;8.45;;;3.80;;
55672;SDS011;41554;45.366;20.400;2022-09-01T07:57:12;13.07;;;3.65;;
55672;SDS011;41554;45.366;20.400;2022-09-01T07:59:39;8.02;;;3.65;;
55672;SDS011;41554;45.366;20.400;2022-09-01T08:02:07;12.32;;;5.25;;
55672;SDS011;41554;45.366;20.400;2022-09-01T08:04:34;13.93;;;4.55;;
55672;SDS011;41554;45.366;20.400;2022-09-01T08:07:00;7.60;;;3.35;;
55672;SDS011;41554;45.366;20.400;2022-09-01T08:09:27;6.63;;;4.05;;
55672;SDS011;41554;45.366;20.400;2022-09-01T08:11:53;13.55;;;3.38;;
55672;SDS011;41554;45.366;20.400;2022-09-01T08:14:19;5.85;;;3.78;;
55672;SDS011;41554;45.366;20.400;2022-09-01T08:16:45;14.05;;;4.03;;
55672;SDS011;41554;45.366;20.400;2022-09-01T08:19:11;6.70;;;4.30;;
55672;SDS011;41554;45.366;20.400;2022-09-01T08:21:37;6.60;;;3.85;;
55672;SDS011;41554;45.366;20.400;2022-09-01T08:24:04;5.43;;;3.08;;
55672;SDS011;41554;45.366;20.400;2022-09-01T08:26:30;5.13;;;2.70;;
55672;SDS011;41554;45.366;20.400;2022-09-01T08:28:56;6.70;;;2.88;;
55672;SDS011;41554;45.366;20.400;2022-09-01T08:31:23;7.53;;;3.60;;
55672;SDS011;41554;45.366;20.400;2022-09-01T08:33:49;3.78;;;3.00;;
55672;SDS011;41554;45.366;20.400;2022-09-01T08:36:16;4.15;;;3.35;;
55672;SDS011;41554;45.366;20.400;2022-09-01T08:38:42;5.50;;;2.78;;
55672;SDS011;41554;45.366;20.400;2022-09-01T08:41:17;4.25;;;3.30;;
55672;SDS011;41554;45.366;20.400;2022-09-01T08:46:34;7.45;;;3.33;;
55672;SDS011;41554;45.366;20.400;2022-09-01T08:49:06;4.75;;;3.63;;
55672;SDS011;41554;45.366;20.400;2022-09-01T08:56:41;5.65;;;3.10;;
55672;SDS011;41554;45.366;20.400;2022-09-01T08:59:08;6.72;;;4.25;;
55672;SDS011;41554;45.366;20.400;2022-09-01T09:06:35;6.40;;;3.80;;
55672;SDS011;41554;45.366;20.400;2022-09-01T09:09:04;7.47;;;4.10;;
55672;SDS011;41554;45.366;20.400;2022-09-01T09:16:23;3.03;;;2.55;;
55672;SDS011;41554;45.366;20.400;2022-09-01T09:18:52;4.45;;;3.38;;
55672;SDS011;41554;45.366;20.400;2022-09-01T09:23:49;12.82;;;3.95;;
55672;SDS011;41554;45.366;20.400;2022-09-01T09:26:19;16.83;;;3.50;;
55672;SDS011;41554;45.366;20.400;2022-09-01T09:28:46;9.18;;;3.20;;
55672;SDS011;41554;45.366;20.400;2022-09-01T09:33:59;4.70;;;3.35;;
55672;SDS011;41554;45.366;20.400;2022-09-01T09:36:29;12.77;;;3.42;;
55672;SDS011;41554;45.366;20.400;2022-09-01T09:39:16;4.22;;;3.15;;
55672;SDS011;41554;45.366;20.400;2022-09-01T09:41:43;5.20;;;3.22;;
55672;SDS011;41554;45.366;20.400;2022-09-01T09:44:25;5.43;;;3.88;;
55672;SDS011;41554;45.366;20.400;2022-09-01T09:46:53;4.53;;;3.30;;
55672;SDS011;41554;45.366;20.400;2022-09-01T09:51:52;6.80;;;4.18;;
55672;SDS011;41554;45.366;20.400;2022-09-01T09:59:37;3.85;;;2.97;;
55672;SDS011;41554;45.366;20.400;2022-09-01T10:04:52;10.10;;;4.88;;
55672;SDS011;41554;45.366;20.400;2022-09-01T10:07:29;9.45;;;4.80;;
55672;SDS011;41554;45.366;20.400;2022-09-01T10:09:57;8.88;;;4.32;;
55672;SDS011;41554;45.366;20.400;2022-09-01T10:12:24;11.30;;;5.55;;
55672;SDS011;41554;45.366;20.400;2022-09-01T10:14:55;6.65;;;5.00;;
55672;SDS011;41554;45.366;20.400;2022-09-01T10:17:24;14.23;;;4.68;;
55672;SDS011;41554;45.366;20.400;2022-09-01T10:22:19;8.00;;;3.85;;
55672;SDS011;41554;45.366;20.400;2022-09-01T10:24:45;11.18;;;4.78;;
55672;SDS011;41554;45.366;20.400;2022-09-01T10:27:18;9.30;;;4.88;;
55672;SDS011;41554;45.366;20.400;2022-09-01T10:29:47;5.57;;;3.92;;
55672;SDS011;41554;45.366;20.400;2022-09-01T10:32:20;6.57;;;4.32;;
55672;SDS011;41554;45.366;20.400;2022-09-01T10:34:47;4.82;;;4.40;;
55672;SDS011;41554;45.366;20.400;2022-09-01T10:37:14;9.60;;;6.22;;
55672;SDS011;41554;45.366;20.400;2022-09-01T10:42:25;6.32;;;4.57;;
55672;SDS011;41554;45.366;20.400;2022-09-01T10:44:55;6.13;;;4.40;;
55672;SDS011;41554;45.366;20.400;2022-09-01T10:47:32;6.05;;;4.70;;
55672;SDS011;41554;45.366;20.400;2022-09-01T10:50:00;6.95;;;5.13;;
55672;SDS011;41554;45.366;20.400;2022-09-01T10:55:14;4.72;;;3.72;;
55672;SDS011;41554;45.366;20.400;2022-09-01T11:05:34;19.73;;;6.15;;
55672;SDS011;41554;45.366;20.400;2022-09-01T11:08:21;9.60;;;4.80;;
55672;SDS011;41554;45.366;20.400;2022-09-01T11:10:55;7.78;;;4.40;;
55672;SDS011;41554;45.366;20.400;2022-09-01T11:15:53;6.35;;;4.63;;
55672;SDS011;41554;45.366;20.400;2022-09-01T11:20:50;5.25;;;4.75;;
55672;SDS011;41554;45.366;20.400;2022-09-01T11:23:26;6.63;;;5.93;;
55672;SDS011;41554;45.366;20.400;2022-09-01T11:25:58;8.43;;;5.95;;
55672;SDS011;41554;45.366;20.400;2022-09-01T11:30:59;5.70;;;4.30;;
55672;SDS011;41554;45.366;20.400;2022-09-01T11:36:03;5.25;;;4.65;;
55672;SDS011;41554;45.366;20.400;2022-09-01T11:38:33;9.02;;;6.60;;
55672;SDS011;41554;45.366;20.400;2022-09-01T11:41:02;7.55;;;4.80;;
55672;SDS011;41554;45.366;20.400;2022-09-01T11:43:28;5.88;;;4.78;;
55672;SDS011;41554;45.366;20.400;2022-09-01T11:45:58;6.68;;;4.88;;
55672;SDS011;41554;45.366;20.400;2022-09-01T11:48:27;5.93;;;4.60;;
55672;SDS011;41554;45.366;20.400;2022-09-01T11:51:04;6.85;;;4.72;;
55672;SDS011;41554;45.366;20.400;2022-09-01T11:53:30;9.30;;;6.40;;
55672;SDS011;41554;45.366;20.400;2022-09-01T11:56:10;11.63;;;5.13;;
55672;SDS011;41554;45.366;20.400;2022-09-01T11:58:36;14.00;;;6.15;;
55672;SDS011;41554;45.366;20.400;2022-09-01T12:03:37;8.70;;;5.40;;
55672;SDS011;41554;45.366;20.400;2022-09-01T12:06:05;8.07;;;5.88;;
55672;SDS011;41554;45.366;20.400;2022-09-01T12:08:34;7.78;;;4.50;;
55672;SDS011;41554;45.366;20.400;2022-09-01T12:11:08;7.75;;;5.25;;
55672;SDS011;41554;45.366;20.400;2022-09-01T12:13:35;8.50;;;5.50;;
55672;SDS011;41554;45.366;20.400;2022-09-01T12:16:03;6.47;;;4.75;;
55672;SDS011;41554;45.366;20.400;2022-09-01T12:18:31;6.10;;;4.63;;
55672;SDS011;41554;45.366;20.400;2022-09-01T12:20:59;5.80;;;4.20;;
55672;SDS011;41554;45.366;20.400;2022-09-01T12:23:27;6.75;;;4.78;;
55672;SDS011;41554;45.366;20.400;2022-09-01T12:25:57;17.00;;;5.93;;
55672;SDS011;41554;45.366;20.400;2022-09-01T12:28:24;9.98;;;5.15;;
55672;SDS011;41554;45.366;20.400;2022-09-01T12:30:51;7.45;;;5.07;;
55672;SDS011;41554;45.366;20.400;2022-09-01T12:33:18;9.35;;;5.80;;
55672;SDS011;41554;45.366;20.400;2022-09-01T12:35:44;7.95;;;5.30;;
55672;SDS011;41554;45.366;20.400;2022-09-01T12:38:20;10.55;;;4.75;;
55672;SDS011;41554;45.366;20.400;2022-09-01T12:40:51;6.63;;;5.78;;
55672;SDS011;41554;45.366;20.400;2022-09-01T12:43:33;6.60;;;4.90;;
55672;SDS011;41554;45.366;20.400;2022-09-01T12:45:59;11.02;;;5.50;;
55672;SDS011;41554;45.366;20.400;2022-09-01T12:51:02;8.40;;;5.95;;
55672;SDS011;41554;45.366;20.400;2022-09-01T12:53:30;5.85;;;4.20;;
55672;SDS011;41554;45.366;20.400;2022-09-01T12:56:01;7.50;;;5.13;;
55672;SDS011;41554;45.366;20.400;2022-09-01T12:58:28;7.95;;;5.30;;
55672;SDS011;41554;45.366;20.400;2022-09-01T13:01:05;6.28;;;4.28;;
55672;SDS011;41554;45.366;20.400;2022-09-01T13:03:40;7.93;;;4.50;;
55672;SDS011;41554;45.366;20.400;2022-09-01T13:06:07;5.75;;;4.45;;
55672;SDS011;41554;45.366;20.400;2022-09-01T13:08:33;9.60;;;5.55;;
55672;SDS011;41554;45.366;20.400;2022-09-01T13:13:29;10.48;;;6.75;;
55672;SDS011;41554;45.366;20.400;2022-09-01T13:15:56;14.65;;;5.35;;
55672;SDS011;41554;45.366;20.400;2022-09-01T13:20:51;11.40;;;4.88;;
55672;SDS011;41554;45.366;20.400;2022-09-01T13:23:17;9.00;;;5.85;;
55672;SDS011;41554;45.366;20.400;2022-09-01T13:25:44;6.47;;;5.13;;
55672;SDS011;41554;45.366;20.400;2022-09-01T13:28:11;11.43;;;5.95;;
55672;SDS011;41554;45.366;20.400;2022-09-01T13:30:37;6.88;;;4.45;;
55672;SDS011;41554;45.366;20.400;2022-09-01T13:33:04;8.73;;;5.65;;
55672;SDS011;41554;45.366;20.400;2022-09-01T13:35:30;6.97;;;5.35;;
55672;SDS011;41554;45.366;20.400;2022-09-01T13:37:56;8.32;;;6.38;;
55672;SDS011;41554;45.366;20.400;2022-09-01T13:40:22;12.10;;;4.85;;
55672;SDS011;41554;45.366;20.400;2022-09-01T13:42:49;8.85;;;5.53;;
55672;SDS011;41554;45.366;20.400;2022-09-01T13:45:16;8.20;;;4.10;;
55672;SDS011;41554;45.366;20.400;2022-09-01T13:47:43;11.85;;;5.22;;
55672;SDS011;41554;45.366;20.400;2022-09-01T13:50:10;8.95;;;6.05;;
55672;SDS011;41554;45.366;20.400;2022-09-01T13:52:41;8.82;;;4.97;;
55672;SDS011;41554;45.366;20.400;2022-09-01T13:55:13;13.43;;;5.57;;
55672;SDS011;41554;45.366;20.400;2022-09-01T13:57:39;6.93;;;3.35;;
55672;SDS011;41554;45.366;20.400;2022-09-01T14:00:07;7.28;;;4.72;;
55672;SDS011;41554;45.366;20.400;2022-09-01T14:02:40;7.30;;;4.30;;
55672;SDS011;41554;45.366;20.400;2022-09-01T14:05:08;5.63;;;3.83;;
55672;SDS011;41554;45.366;20.400;2022-09-01T14:07:34;7.38;;;5.57;;
55672;SDS011;41554;45.366;20.400;2022-09-01T14:10:01;11.27;;;5.55;;
55672;SDS011;41554;45.366;20.400;2022-09-01T14:12:27;8.52;;;5.93;;
55672;SDS011;41554;45.366;20.400;2022-09-01T14:14:54;8.48;;;5.32;;
55672;SDS011;41554;45.366;20.400;2022-09-01T14:17:20;8.55;;;4.93;;
55672;SDS011;41554;45.366;20.400;2022-09-01T14:19:49;6.05;;;3.80;;
55672;SDS011;41554;45.366;20.400;2022-09-01T14:22:15;7.95;;;4.38;;
55672;SDS011;41554;45.366;20.400;2022-09-01T14:24:41;6.07;;;4.22;;
55672;SDS011;41554;45.366;20.400;2022-09-01T14:27:08;8.68;;;5.78;;
55672;SDS011;41554;45.366;20.400;2022-09-01T14:29:34;10.50;;;5.25;;
55672;SDS011;41554;45.366;20.400;2022-09-01T14:32:00;5.97;;;4.07;;
55672;SDS011;41554;45.366;20.400;2022-09-01T14:34:26;11.40;;;4.20;;
55672;SDS011;41554;45.366;20.400;2022-09-01T14:36:54;9.18;;;6.43;;
55672;SDS011;41554;45.366;20.400;2022-09-01T14:39:22;5.20;;;4.32;;
55672;SDS011;41554;45.366;20.400;2022-09-01T14:41:48;11.48;;;6.22;;
55672;SDS011;41554;45.366;20.400;2022-09-01T14:44:14;8.25;;;4.95;;
55672;SDS011;41554;45.366;20.400;2022-09-01T14:46:41;7.43;;;5.53;;
55672;SDS011;41554;45.366;20.400;2022-09-01T14:49:07;8.55;;;6.30;;
55672;SDS011;41554;45.366;20.400;2022-09-01T14:51:35;6.95;;;4.75;;
55672;SDS011;41554;45.366;20.400;2022-09-01T14:54:02;5.65;;;4.07;;
55672;SDS011;41554;45.366;20.400;2022-09-01T14:56:29;6.35;;;5.05;;
55672;SDS011;41554;45.366;20.400;2022-09-01T14:58:55;6.63;;;5.40;;
55672;SDS011;41554;45.366;20.400;2022-09-01T15:01:24;12.80;;;5.65;;
55672;SDS011;41554;45.366;20.400;2022-09-01T15:03:51;10.05;;;5.60;;
55672;SDS011;41554;45.366;20.400;2022-09-01T15:06:17;9.13;;;5.38;;
55672;SDS011;41554;45.366;20.400;2022-09-01T15:08:44;5.70;;;4.10;;
55672;SDS011;41554;45.366;20.400;2022-09-01T15:11:14;9.23;;;4.53;;
55672;SDS011;41554;45.366;20.400;2022-09-01T15:13:41;7.63;;;5.10;;
55672;SDS011;41554;45.366;20.400;2022-09-01T15:16:13;13.77;;;5.50;;
55672;SDS011;41554;45.366;20.400;2022-09-01T15:18:39;10.88;;;4.93;;
55672;SDS011;41554;45.366;20.400;2022-09-01T15:21:05;5.72;;;3.85;;
55672;SDS011;41554;45.366;20.400;2022-09-01T15:23:33;9.43;;;5.05;;
55672;SDS011;41554;45.366;20.400;2022-09-01T15:25:59;7.57;;;5.07;;
55672;SDS011;41554;45.366;20.400;2022-09-01T15:28:25;6.30;;;4.57;;
55672;SDS011;41554;45.366;20.400;2022-09-01T15:30:51;7.72;;;5.72;;
55672;SDS011;41554;45.366;20.400;2022-09-01T15:33:18;8.68;;;4.65;;
55672;SDS011;41554;45.366;20.400;2022-09-01T15:35:45;6.72;;;5.05;;
55672;SDS011;41554;45.366;20.400;2022-09-01T15:38:12;6.05;;;4.45;;
55672;SDS011;41554;45.366;20.400;2022-09-01T15:40:39;10.05;;;5.03;;
55672;SDS011;41554;45.366;20.400;2022-09-01T15:43:05;7.28;;;4.70;;
55672;SDS011;41554;45.366;20.400;2022-09-01T15:45:32;14.95;;;4.40;;